sensor_id;sensor_type;location;lat;lon;timestamp;P1;durP1;ratioP1;P2;durP2;ratioP2
58071;SDS011;60383;46.626;18.866;2022-12-20T00:01:39;52.70;;;24.83;;
58071;SDS011;60383;46.626;18.866;2022-12-20T00:04:04;52.53;;;24.75;;
58071;SDS011;60383;46.626;18.866;2022-12-20T00:06:30;55.28;;;26.83;;
58071;SDS011;60383;46.626;18.866;2022-12-20T00:08:59;54.85;;;28.50;;
58071;SDS011;60383;46.626;18.866;2022-12-20T00:11:26;56.53;;;27.35;;
58071;SDS011;60383;46.626;18.866;2022-12-20T00:13:53;52.97;;;26.17;;
58071;SDS011;60383;46.626;18.866;2022-12-20T00:16:19;55.80;;;25.15;;
58071;SDS011;60383;46.626;18.866;2022-12-20T00:18:49;50.03;;;24.80;;
58071;SDS011;60383;46.626;18.866;2022-12-20T00:21:16;52.65;;;24.23;;
58071;SDS011;60383;46.626;18.866;2022-12-20T00:23:41;50.33;;;26.20;;
58071;SDS011;60383;46.626;18.866;2022-12-20T00:26:08;53.60;;;25.67;;
58071;SDS011;60383;46.626;18.866;2022-12-20T00:28:39;47.75;;;23.92;;
58071;SDS011;60383;46.626;18.866;2022-12-20T00:31:07;50.33;;;24.02;;
58071;SDS011;60383;46.626;18.866;2022-12-20T00:33:34;48.50;;;23.67;;
58071;SDS011;60383;46.626;18.866;2022-12-20T00:36:02;46.78;;;23.30;;
58071;SDS011;60383;46.626;18.866;2022-12-20T00:38:29;44.97;;;23.15;;
58071;SDS011;60383;46.626;18.866;2022-12-20T00:41:01;45.40;;;22.05;;
58071;SDS011;60383;46.626;18.866;2022-12-20T00:43:31;46.88;;;23.42;;
58071;SDS011;60383;46.626;18.866;2022-12-20T00:45:57;47.60;;;23.88;;
58071;SDS011;60383;46.626;18.866;2022-12-20T00:48:23;50.17;;;24.50;;
58071;SDS011;60383;46.626;18.866;2022-12-20T00:50:48;51.88;;;24.30;;
58071;SDS011;60383;46.626;18.866;2022-12-20T00:53:14;47.63;;;23.58;;
58071;SDS011;60383;46.626;18.866;2022-12-20T00:55:43;50.97;;;23.50;;
58071;SDS011;60383;46.626;18.866;2022-12-20T00:58:10;45.17;;;22.20;;
58071;SDS011;60383;46.626;18.866;2022-12-20T01:00:36;50.13;;;23.25;;
58071;SDS011;60383;46.626;18.866;2022-12-20T01:03:02;50.55;;;23.17;;
58071;SDS011;60383;46.626;18.866;2022-12-20T01:05:27;49.55;;;22.75;;
58071;SDS011;60383;46.626;18.866;2022-12-20T01:07:53;51.53;;;24.60;;
58071;SDS011;60383;46.626;18.866;2022-12-20T01:10:18;51.72;;;23.20;;
58071;SDS011;60383;46.626;18.866;2022-12-20T01:12:44;56.13;;;23.98;;
58071;SDS011;60383;46.626;18.866;2022-12-20T01:15:09;45.45;;;21.27;;
58071;SDS011;60383;46.626;18.866;2022-12-20T01:17:35;43.08;;;21.50;;
58071;SDS011;60383;46.626;18.866;2022-12-20T01:20:01;49.15;;;23.85;;
58071;SDS011;60383;46.626;18.866;2022-12-20T01:22:26;52.90;;;25.58;;
58071;SDS011;60383;46.626;18.866;2022-12-20T01:24:52;50.03;;;22.75;;
58071;SDS011;60383;46.626;18.866;2022-12-20T01:27:17;49.88;;;23.52;;
58071;SDS011;60383;46.626;18.866;2022-12-20T01:29:43;53.30;;;24.63;;
58071;SDS011;60383;46.626;18.866;2022-12-20T01:32:09;51.25;;;24.80;;
58071;SDS011;60383;46.626;18.866;2022-12-20T01:34:34;49.03;;;24.40;;
58071;SDS011;60383;46.626;18.866;2022-12-20T01:37:00;46.67;;;22.55;;
58071;SDS011;60383;46.626;18.866;2022-12-20T01:39:25;47.30;;;23.20;;
58071;SDS011;60383;46.626;18.866;2022-12-20T01:41:50;49.85;;;23.15;;
58071;SDS011;60383;46.626;18.866;2022-12-20T01:46:42;48.08;;;21.75;;
58071;SDS011;60383;46.626;18.866;2022-12-20T01:52:14;43.63;;;21.98;;
58071;SDS011;60383;46.626;18.866;2022-12-20T01:57:30;44.92;;;21.70;;
58071;SDS011;60383;46.626;18.866;2022-12-20T02:00:00;44.08;;;21.02;;
58071;SDS011;60383;46.626;18.866;2022-12-20T02:02:28;42.42;;;20.90;;
58071;SDS011;60383;46.626;18.866;2022-12-20T02:04:54;46.28;;;21.98;;
58071;SDS011;60383;46.626;18.866;2022-12-20T02:07:20;41.72;;;21.35;;
58071;SDS011;60383;46.626;18.866;2022-12-20T02:09:50;39.95;;;19.85;;
58071;SDS011;60383;46.626;18.866;2022-12-20T02:12:22;38.72;;;20.17;;
58071;SDS011;60383;46.626;18.866;2022-12-20T02:30:56;32.15;;;16.40;;
58071;SDS011;60383;46.626;18.866;2022-12-20T02:33:24;32.75;;;17.45;;
58071;SDS011;60383;46.626;18.866;2022-12-20T02:35:52;36.28;;;18.52;;
58071;SDS011;60383;46.626;18.866;2022-12-20T02:41:01;35.58;;;17.88;;
58071;SDS011;60383;46.626;18.866;2022-12-20T02:43:29;35.47;;;17.15;;
58071;SDS011;60383;46.626;18.866;2022-12-20T02:46:15;31.88;;;15.82;;
58071;SDS011;60383;46.626;18.866;2022-12-20T02:48:43;37.55;;;15.70;;
58071;SDS011;60383;46.626;18.866;2022-12-20T02:51:11;29.88;;;14.90;;
58071;SDS011;60383;46.626;18.866;2022-12-20T02:53:39;31.38;;;16.00;;
58071;SDS011;60383;46.626;18.866;2022-12-20T02:56:13;28.13;;;14.57;;
58071;SDS011;60383;46.626;18.866;2022-12-20T02:58:48;32.00;;;16.05;;
58071;SDS011;60383;46.626;18.866;2022-12-20T03:01:20;31.75;;;15.25;;
58071;SDS011;60383;46.626;18.866;2022-12-20T03:03:51;29.45;;;14.18;;
58071;SDS011;60383;46.626;18.866;2022-12-20T03:06:18;31.88;;;15.00;;
58071;SDS011;60383;46.626;18.866;2022-12-20T03:08:44;36.88;;;17.08;;
58071;SDS011;60383;46.626;18.866;2022-12-20T03:11:10;28.60;;;14.82;;
58071;SDS011;60383;46.626;18.866;2022-12-20T03:13:36;31.83;;;15.90;;
58071;SDS011;60383;46.626;18.866;2022-12-20T03:16:01;31.60;;;16.13;;
58071;SDS011;60383;46.626;18.866;2022-12-20T03:18:27;33.05;;;15.45;;
58071;SDS011;60383;46.626;18.866;2022-12-20T03:20:52;30.33;;;15.48;;
58071;SDS011;60383;46.626;18.866;2022-12-20T03:23:17;32.08;;;15.75;;
58071;SDS011;60383;46.626;18.866;2022-12-20T03:25:43;29.92;;;15.13;;
58071;SDS011;60383;46.626;18.866;2022-12-20T03:28:08;31.92;;;15.40;;
58071;SDS011;60383;46.626;18.866;2022-12-20T03:30:34;30.20;;;14.73;;
58071;SDS011;60383;46.626;18.866;2022-12-20T03:32:59;30.50;;;15.10;;
58071;SDS011;60383;46.626;18.866;2022-12-20T03:35:25;28.70;;;14.48;;
58071;SDS011;60383;46.626;18.866;2022-12-20T03:37:50;26.75;;;13.77;;
58071;SDS011;60383;46.626;18.866;2022-12-20T03:40:15;27.88;;;14.25;;
58071;SDS011;60383;46.626;18.866;2022-12-20T03:42:41;31.13;;;15.55;;
58071;SDS011;60383;46.626;18.866;2022-12-20T03:45:07;29.20;;;13.85;;
58071;SDS011;60383;46.626;18.866;2022-12-20T03:47:33;30.50;;;14.52;;
58071;SDS011;60383;46.626;18.866;2022-12-20T03:49:58;26.65;;;13.98;;
58071;SDS011;60383;46.626;18.866;2022-12-20T03:52:23;27.92;;;14.85;;
58071;SDS011;60383;46.626;18.866;2022-12-20T03:54:49;28.45;;;14.68;;
58071;SDS011;60383;46.626;18.866;2022-12-20T03:57:14;26.95;;;13.80;;
58071;SDS011;60383;46.626;18.866;2022-12-20T03:59:40;25.30;;;13.80;;
58071;SDS011;60383;46.626;18.866;2022-12-20T04:02:05;28.40;;;14.35;;
58071;SDS011;60383;46.626;18.866;2022-12-20T04:04:31;30.52;;;14.85;;
58071;SDS011;60383;46.626;18.866;2022-12-20T04:06:56;30.00;;;13.70;;
58071;SDS011;60383;46.626;18.866;2022-12-20T04:09:22;31.30;;;14.88;;
58071;SDS011;60383;46.626;18.866;2022-12-20T04:11:47;29.95;;;15.93;;
58071;SDS011;60383;46.626;18.866;2022-12-20T04:14:13;31.50;;;15.50;;
58071;SDS011;60383;46.626;18.866;2022-12-20T04:16:38;27.42;;;14.20;;
58071;SDS011;60383;46.626;18.866;2022-12-20T04:19:04;31.05;;;14.27;;
58071;SDS011;60383;46.626;18.866;2022-12-20T04:21:30;30.52;;;14.40;;
58071;SDS011;60383;46.626;18.866;2022-12-20T04:23:58;29.58;;;14.45;;
58071;SDS011;60383;46.626;18.866;2022-12-20T04:26:24;28.02;;;13.85;;
58071;SDS011;60383;46.626;18.866;2022-12-20T04:28:50;36.70;;;16.55;;
58071;SDS011;60383;46.626;18.866;2022-12-20T04:31:16;29.52;;;14.02;;
58071;SDS011;60383;46.626;18.866;2022-12-20T04:33:41;28.05;;;14.18;;
58071;SDS011;60383;46.626;18.866;2022-12-20T04:36:07;27.83;;;14.45;;
58071;SDS011;60383;46.626;18.866;2022-12-20T04:38:33;32.75;;;15.82;;
58071;SDS011;60383;46.626;18.866;2022-12-20T04:40:58;28.20;;;13.98;;
58071;SDS011;60383;46.626;18.866;2022-12-20T04:43:24;28.10;;;13.88;;
58071;SDS011;60383;46.626;18.866;2022-12-20T04:45:51;28.33;;;13.18;;
58071;SDS011;60383;46.626;18.866;2022-12-20T04:48:20;32.13;;;14.02;;
58071;SDS011;60383;46.626;18.866;2022-12-20T04:50:49;30.70;;;14.73;;
58071;SDS011;60383;46.626;18.866;2022-12-20T04:53:15;28.88;;;15.32;;
58071;SDS011;60383;46.626;18.866;2022-12-20T04:56:00;30.73;;;15.32;;
58071;SDS011;60383;46.626;18.866;2022-12-20T04:58:26;26.80;;;14.50;;
58071;SDS011;60383;46.626;18.866;2022-12-20T05:00:52;27.67;;;13.73;;
58071;SDS011;60383;46.626;18.866;2022-12-20T05:03:18;27.08;;;13.60;;
58071;SDS011;60383;46.626;18.866;2022-12-20T05:05:44;28.38;;;14.57;;
58071;SDS011;60383;46.626;18.866;2022-12-20T05:08:10;26.42;;;13.35;;
58071;SDS011;60383;46.626;18.866;2022-12-20T05:10:35;30.80;;;14.98;;
58071;SDS011;60383;46.626;18.866;2022-12-20T05:13:01;27.58;;;12.90;;
58071;SDS011;60383;46.626;18.866;2022-12-20T05:15:26;27.13;;;12.93;;
58071;SDS011;60383;46.626;18.866;2022-12-20T05:17:52;30.23;;;14.35;;
58071;SDS011;60383;46.626;18.866;2022-12-20T05:20:23;24.40;;;13.23;;
58071;SDS011;60383;46.626;18.866;2022-12-20T05:22:50;26.10;;;13.52;;
58071;SDS011;60383;46.626;18.866;2022-12-20T05:25:35;29.20;;;13.07;;
58071;SDS011;60383;46.626;18.866;2022-12-20T05:28:20;25.08;;;12.05;;
58071;SDS011;60383;46.626;18.866;2022-12-20T05:30:46;26.85;;;12.38;;
58071;SDS011;60383;46.626;18.866;2022-12-20T05:33:11;25.50;;;13.45;;
58071;SDS011;60383;46.626;18.866;2022-12-20T05:35:36;27.08;;;13.43;;
58071;SDS011;60383;46.626;18.866;2022-12-20T05:38:02;24.38;;;13.27;;
58071;SDS011;60383;46.626;18.866;2022-12-20T05:40:28;25.88;;;12.73;;
58071;SDS011;60383;46.626;18.866;2022-12-20T05:42:53;24.58;;;12.90;;
58071;SDS011;60383;46.626;18.866;2022-12-20T05:45:19;24.02;;;12.75;;
58071;SDS011;60383;46.626;18.866;2022-12-20T05:47:44;25.00;;;12.68;;
58071;SDS011;60383;46.626;18.866;2022-12-20T05:50:10;25.70;;;13.65;;
58071;SDS011;60383;46.626;18.866;2022-12-20T05:52:35;27.65;;;13.05;;
58071;SDS011;60383;46.626;18.866;2022-12-20T05:55:01;27.20;;;13.52;;
58071;SDS011;60383;46.626;18.866;2022-12-20T05:57:26;28.75;;;13.98;;
58071;SDS011;60383;46.626;18.866;2022-12-20T05:59:52;27.33;;;13.32;;
58071;SDS011;60383;46.626;18.866;2022-12-20T06:02:18;27.27;;;13.93;;
58071;SDS011;60383;46.626;18.866;2022-12-20T06:04:44;32.05;;;14.30;;
58071;SDS011;60383;46.626;18.866;2022-12-20T06:07:09;27.10;;;13.65;;
58071;SDS011;60383;46.626;18.866;2022-12-20T06:09:35;33.30;;;15.88;;
58071;SDS011;60383;46.626;18.866;2022-12-20T06:12:00;28.00;;;13.60;;
58071;SDS011;60383;46.626;18.866;2022-12-20T06:14:26;28.67;;;14.27;;
58071;SDS011;60383;46.626;18.866;2022-12-20T06:16:51;28.75;;;14.10;;
58071;SDS011;60383;46.626;18.866;2022-12-20T06:19:17;26.73;;;13.63;;
58071;SDS011;60383;46.626;18.866;2022-12-20T06:21:43;27.80;;;13.32;;
58071;SDS011;60383;46.626;18.866;2022-12-20T06:24:08;24.83;;;11.55;;
58071;SDS011;60383;46.626;18.866;2022-12-20T06:26:34;27.15;;;12.45;;
58071;SDS011;60383;46.626;18.866;2022-12-20T06:29:03;28.95;;;12.77;;
58071;SDS011;60383;46.626;18.866;2022-12-20T06:31:34;27.30;;;12.90;;
58071;SDS011;60383;46.626;18.866;2022-12-20T06:34:00;27.08;;;13.02;;
58071;SDS011;60383;46.626;18.866;2022-12-20T06:36:25;25.10;;;12.07;;
58071;SDS011;60383;46.626;18.866;2022-12-20T06:38:51;25.73;;;12.32;;
58071;SDS011;60383;46.626;18.866;2022-12-20T06:41:16;25.95;;;12.02;;
58071;SDS011;60383;46.626;18.866;2022-12-20T06:43:42;22.45;;;11.23;;
58071;SDS011;60383;46.626;18.866;2022-12-20T06:46:07;23.38;;;11.68;;
58071;SDS011;60383;46.626;18.866;2022-12-20T06:48:33;25.23;;;12.65;;
58071;SDS011;60383;46.626;18.866;2022-12-20T06:50:58;23.50;;;11.45;;
58071;SDS011;60383;46.626;18.866;2022-12-20T06:53:24;24.42;;;13.93;;
58071;SDS011;60383;46.626;18.866;2022-12-20T06:55:49;21.55;;;11.20;;
58071;SDS011;60383;46.626;18.866;2022-12-20T06:58:16;26.90;;;12.35;;
58071;SDS011;60383;46.626;18.866;2022-12-20T07:00:42;22.60;;;12.32;;
58071;SDS011;60383;46.626;18.866;2022-12-20T07:03:07;26.63;;;12.60;;
58071;SDS011;60383;46.626;18.866;2022-12-20T07:05:33;22.08;;;10.48;;
58071;SDS011;60383;46.626;18.866;2022-12-20T07:07:58;22.27;;;10.60;;
58071;SDS011;60383;46.626;18.866;2022-12-20T07:10:23;23.75;;;11.95;;
58071;SDS011;60383;46.626;18.866;2022-12-20T07:12:50;21.70;;;10.73;;
58071;SDS011;60383;46.626;18.866;2022-12-20T07:15:16;24.73;;;11.93;;
58071;SDS011;60383;46.626;18.866;2022-12-20T07:17:42;22.50;;;12.35;;
58071;SDS011;60383;46.626;18.866;2022-12-20T07:20:07;21.58;;;11.95;;
58071;SDS011;60383;46.626;18.866;2022-12-20T07:22:33;21.13;;;11.38;;
58071;SDS011;60383;46.626;18.866;2022-12-20T07:24:59;20.98;;;11.23;;
58071;SDS011;60383;46.626;18.866;2022-12-20T07:27:24;22.13;;;11.65;;
58071;SDS011;60383;46.626;18.866;2022-12-20T07:29:49;21.67;;;11.25;;
58071;SDS011;60383;46.626;18.866;2022-12-20T07:32:15;21.27;;;10.73;;
58071;SDS011;60383;46.626;18.866;2022-12-20T07:34:41;23.23;;;11.55;;
58071;SDS011;60383;46.626;18.866;2022-12-20T07:37:06;25.77;;;13.20;;
58071;SDS011;60383;46.626;18.866;2022-12-20T07:39:32;25.73;;;12.45;;
58071;SDS011;60383;46.626;18.866;2022-12-20T07:41:58;22.27;;;12.32;;
58071;SDS011;60383;46.626;18.866;2022-12-20T07:44:24;24.00;;;12.40;;
58071;SDS011;60383;46.626;18.866;2022-12-20T07:46:49;23.85;;;13.32;;
58071;SDS011;60383;46.626;18.866;2022-12-20T07:49:15;23.08;;;12.57;;
58071;SDS011;60383;46.626;18.866;2022-12-20T07:51:41;22.92;;;12.32;;
58071;SDS011;60383;46.626;18.866;2022-12-20T07:54:15;20.52;;;10.90;;
58071;SDS011;60383;46.626;18.866;2022-12-20T07:56:45;24.40;;;12.02;;
58071;SDS011;60383;46.626;18.866;2022-12-20T07:59:15;22.90;;;12.73;;
58071;SDS011;60383;46.626;18.866;2022-12-20T08:01:44;22.67;;;12.93;;
58071;SDS011;60383;46.626;18.866;2022-12-20T08:04:12;22.73;;;12.55;;
58071;SDS011;60383;46.626;18.866;2022-12-20T08:06:42;22.65;;;12.88;;
58071;SDS011;60383;46.626;18.866;2022-12-20T08:09:07;23.10;;;11.40;;
58071;SDS011;60383;46.626;18.866;2022-12-20T08:11:37;20.48;;;12.05;;
58071;SDS011;60383;46.626;18.866;2022-12-20T08:14:06;23.52;;;13.30;;
58071;SDS011;60383;46.626;18.866;2022-12-20T08:16:32;22.20;;;12.82;;
58071;SDS011;60383;46.626;18.866;2022-12-20T08:18:58;20.67;;;12.05;;
58071;SDS011;60383;46.626;18.866;2022-12-20T08:21:24;22.40;;;12.05;;
58071;SDS011;60383;46.626;18.866;2022-12-20T08:23:49;21.33;;;13.00;;
58071;SDS011;60383;46.626;18.866;2022-12-20T08:26:16;21.17;;;12.65;;
58071;SDS011;60383;46.626;18.866;2022-12-20T08:28:41;21.13;;;12.60;;
58071;SDS011;60383;46.626;18.866;2022-12-20T08:31:07;21.92;;;13.23;;
58071;SDS011;60383;46.626;18.866;2022-12-20T08:33:33;20.85;;;13.93;;
58071;SDS011;60383;46.626;18.866;2022-12-20T08:36:01;22.63;;;13.25;;
58071;SDS011;60383;46.626;18.866;2022-12-20T08:38:28;20.33;;;12.07;;
58071;SDS011;60383;46.626;18.866;2022-12-20T08:40:55;21.02;;;12.68;;
58071;SDS011;60383;46.626;18.866;2022-12-20T08:43:25;20.88;;;11.88;;
58071;SDS011;60383;46.626;18.866;2022-12-20T08:45:51;20.48;;;12.10;;
58071;SDS011;60383;46.626;18.866;2022-12-20T08:48:19;17.38;;;11.23;;
58071;SDS011;60383;46.626;18.866;2022-12-20T08:50:44;22.23;;;12.27;;
58071;SDS011;60383;46.626;18.866;2022-12-20T08:53:10;20.95;;;12.05;;
58071;SDS011;60383;46.626;18.866;2022-12-20T08:55:35;20.27;;;11.75;;
58071;SDS011;60383;46.626;18.866;2022-12-20T08:58:00;21.20;;;12.07;;
58071;SDS011;60383;46.626;18.866;2022-12-20T09:00:26;21.13;;;12.15;;
58071;SDS011;60383;46.626;18.866;2022-12-20T09:02:52;23.63;;;12.77;;
58071;SDS011;60383;46.626;18.866;2022-12-20T09:05:18;21.85;;;13.50;;
58071;SDS011;60383;46.626;18.866;2022-12-20T09:07:44;21.17;;;11.05;;
58071;SDS011;60383;46.626;18.866;2022-12-20T09:10:10;19.00;;;10.80;;
58071;SDS011;60383;46.626;18.866;2022-12-20T09:12:37;21.02;;;12.90;;
58071;SDS011;60383;46.626;18.866;2022-12-20T09:15:03;18.92;;;10.82;;
58071;SDS011;60383;46.626;18.866;2022-12-20T09:17:29;20.42;;;11.68;;
58071;SDS011;60383;46.626;18.866;2022-12-20T09:19:54;19.25;;;10.85;;
58071;SDS011;60383;46.626;18.866;2022-12-20T09:22:20;21.48;;;11.73;;
58071;SDS011;60383;46.626;18.866;2022-12-20T09:24:45;20.27;;;12.35;;
58071;SDS011;60383;46.626;18.866;2022-12-20T09:27:11;20.40;;;11.80;;
58071;SDS011;60383;46.626;18.866;2022-12-20T09:29:36;18.25;;;10.90;;
58071;SDS011;60383;46.626;18.866;2022-12-20T09:32:02;20.98;;;12.70;;
58071;SDS011;60383;46.626;18.866;2022-12-20T09:34:27;20.23;;;11.02;;
58071;SDS011;60383;46.626;18.866;2022-12-20T09:36:53;22.42;;;13.52;;
58071;SDS011;60383;46.626;18.866;2022-12-20T09:39:19;19.52;;;12.10;;
58071;SDS011;60383;46.626;18.866;2022-12-20T09:41:44;20.92;;;10.82;;
58071;SDS011;60383;46.626;18.866;2022-12-20T09:46:45;20.10;;;11.35;;
58071;SDS011;60383;46.626;18.866;2022-12-20T09:49:26;21.58;;;11.30;;
58071;SDS011;60383;46.626;18.866;2022-12-20T10:00:22;18.13;;;10.50;;
58071;SDS011;60383;46.626;18.866;2022-12-20T10:02:48;20.83;;;11.73;;
58071;SDS011;60383;46.626;18.866;2022-12-20T10:05:19;21.20;;;12.18;;
58071;SDS011;60383;46.626;18.866;2022-12-20T10:08:00;22.92;;;13.75;;
58071;SDS011;60383;46.626;18.866;2022-12-20T10:16:46;20.17;;;12.20;;
58071;SDS011;60383;46.626;18.866;2022-12-20T10:24:51;23.65;;;13.27;;
58071;SDS011;60383;46.626;18.866;2022-12-20T10:27:22;24.02;;;12.75;;
58071;SDS011;60383;46.626;18.866;2022-12-20T10:29:48;23.05;;;11.80;;
58071;SDS011;60383;46.626;18.866;2022-12-20T10:32:16;21.02;;;11.60;;
58071;SDS011;60383;46.626;18.866;2022-12-20T10:37:20;23.00;;;13.45;;
58071;SDS011;60383;46.626;18.866;2022-12-20T10:39:47;20.83;;;12.07;;
58071;SDS011;60383;46.626;18.866;2022-12-20T10:47:41;21.80;;;12.93;;
58071;SDS011;60383;46.626;18.866;2022-12-20T10:52:37;20.92;;;12.43;;
58071;SDS011;60383;46.626;18.866;2022-12-20T10:55:02;23.42;;;12.95;;
58071;SDS011;60383;46.626;18.866;2022-12-20T10:58:20;23.00;;;12.40;;
58071;SDS011;60383;46.626;18.866;2022-12-20T11:01:15;22.80;;;12.07;;
58071;SDS011;60383;46.626;18.866;2022-12-20T11:04:04;23.33;;;12.65;;
58071;SDS011;60383;46.626;18.866;2022-12-20T11:06:42;23.05;;;12.52;;
58071;SDS011;60383;46.626;18.866;2022-12-20T11:09:29;22.33;;;12.10;;
58071;SDS011;60383;46.626;18.866;2022-12-20T11:14:25;22.17;;;12.07;;
58071;SDS011;60383;46.626;18.866;2022-12-20T11:16:52;21.58;;;12.18;;
58071;SDS011;60383;46.626;18.866;2022-12-20T11:19:29;21.35;;;12.80;;
58071;SDS011;60383;46.626;18.866;2022-12-20T11:27:14;22.48;;;13.07;;
58071;SDS011;60383;46.626;18.866;2022-12-20T11:30:04;22.17;;;11.88;;
58071;SDS011;60383;46.626;18.866;2022-12-20T11:32:41;23.45;;;12.35;;
58071;SDS011;60383;46.626;18.866;2022-12-20T11:38:39;23.40;;;13.88;;
58071;SDS011;60383;46.626;18.866;2022-12-20T11:52:09;20.98;;;11.93;;
58071;SDS011;60383;46.626;18.866;2022-12-20T11:57:33;28.08;;;14.75;;
58071;SDS011;60383;46.626;18.866;2022-12-20T12:00:05;26.35;;;14.60;;
58071;SDS011;60383;46.626;18.866;2022-12-20T12:02:36;23.30;;;13.05;;
58071;SDS011;60383;46.626;18.866;2022-12-20T12:05:16;23.00;;;14.57;;
58071;SDS011;60383;46.626;18.866;2022-12-20T12:07:46;28.15;;;16.35;;
58071;SDS011;60383;46.626;18.866;2022-12-20T12:10:18;23.25;;;13.70;;
58071;SDS011;60383;46.626;18.866;2022-12-20T12:23:20;25.00;;;12.98;;
58071;SDS011;60383;46.626;18.866;2022-12-20T12:25:50;22.48;;;13.27;;
58071;SDS011;60383;46.626;18.866;2022-12-20T12:28:16;27.60;;;14.45;;
58071;SDS011;60383;46.626;18.866;2022-12-20T12:30:45;24.25;;;13.63;;
58071;SDS011;60383;46.626;18.866;2022-12-20T12:33:42;26.02;;;13.60;;
58071;SDS011;60383;46.626;18.866;2022-12-20T12:45:00;26.10;;;14.95;;
58071;SDS011;60383;46.626;18.866;2022-12-20T12:47:32;27.30;;;13.73;;
58071;SDS011;60383;46.626;18.866;2022-12-20T12:50:02;24.08;;;13.05;;
58071;SDS011;60383;46.626;18.866;2022-12-20T12:52:49;21.65;;;11.23;;
58071;SDS011;60383;46.626;18.866;2022-12-20T13:08:48;26.92;;;13.65;;
58071;SDS011;60383;46.626;18.866;2022-12-20T13:16:42;25.85;;;14.65;;
58071;SDS011;60383;46.626;18.866;2022-12-20T13:19:35;31.80;;;15.15;;
58071;SDS011;60383;46.626;18.866;2022-12-20T13:27:15;24.20;;;13.00;;
58071;SDS011;60383;46.626;18.866;2022-12-20T13:40:58;26.10;;;14.32;;
58071;SDS011;60383;46.626;18.866;2022-12-20T13:43:27;24.75;;;13.95;;
58071;SDS011;60383;46.626;18.866;2022-12-20T13:51:20;23.70;;;13.25;;
58071;SDS011;60383;46.626;18.866;2022-12-20T13:53:58;26.65;;;13.30;;
58071;SDS011;60383;46.626;18.866;2022-12-20T13:58:53;24.00;;;13.30;;
58071;SDS011;60383;46.626;18.866;2022-12-20T14:01:20;26.48;;;13.93;;
58071;SDS011;60383;46.626;18.866;2022-12-20T14:03:49;26.58;;;14.00;;
58071;SDS011;60383;46.626;18.866;2022-12-20T14:06:18;27.85;;;13.75;;
58071;SDS011;60383;46.626;18.866;2022-12-20T14:08:47;24.63;;;14.13;;
58071;SDS011;60383;46.626;18.866;2022-12-20T14:11:15;24.48;;;13.40;;
58071;SDS011;60383;46.626;18.866;2022-12-20T14:16:17;28.52;;;14.93;;
58071;SDS011;60383;46.626;18.866;2022-12-20T14:18:47;25.33;;;14.02;;
58071;SDS011;60383;46.626;18.866;2022-12-20T14:21:14;28.65;;;15.73;;
58071;SDS011;60383;46.626;18.866;2022-12-20T14:23:41;26.50;;;13.93;;
58071;SDS011;60383;46.626;18.866;2022-12-20T14:26:10;28.95;;;14.65;;
58071;SDS011;60383;46.626;18.866;2022-12-20T14:28:41;27.20;;;13.90;;
58071;SDS011;60383;46.626;18.866;2022-12-20T14:33:50;27.10;;;14.05;;
58071;SDS011;60383;46.626;18.866;2022-12-20T14:36:20;28.02;;;13.98;;
58071;SDS011;60383;46.626;18.866;2022-12-20T14:38:46;24.92;;;13.63;;
58071;SDS011;60383;46.626;18.866;2022-12-20T14:44:24;26.27;;;14.43;;
58071;SDS011;60383;46.626;18.866;2022-12-20T14:46:55;28.48;;;14.90;;
58071;SDS011;60383;46.626;18.866;2022-12-20T14:57:22;26.42;;;14.77;;
58071;SDS011;60383;46.626;18.866;2022-12-20T14:59:58;28.27;;;15.38;;
58071;SDS011;60383;46.626;18.866;2022-12-20T15:05:47;28.42;;;14.80;;
58071;SDS011;60383;46.626;18.866;2022-12-20T15:10:41;27.83;;;15.00;;
58071;SDS011;60383;46.626;18.866;2022-12-20T15:13:14;26.23;;;14.93;;
58071;SDS011;60383;46.626;18.866;2022-12-20T15:15:41;27.38;;;14.05;;
58071;SDS011;60383;46.626;18.866;2022-12-20T15:18:09;27.83;;;15.07;;
58071;SDS011;60383;46.626;18.866;2022-12-20T15:20:36;29.20;;;15.30;;
58071;SDS011;60383;46.626;18.866;2022-12-20T15:23:02;32.80;;;16.98;;
58071;SDS011;60383;46.626;18.866;2022-12-20T15:25:28;30.45;;;16.48;;
58071;SDS011;60383;46.626;18.866;2022-12-20T15:27:56;30.13;;;15.75;;
58071;SDS011;60383;46.626;18.866;2022-12-20T15:30:22;32.17;;;16.52;;
58071;SDS011;60383;46.626;18.866;2022-12-20T15:32:47;29.83;;;16.15;;
58071;SDS011;60383;46.626;18.866;2022-12-20T15:35:13;28.40;;;16.00;;
58071;SDS011;60383;46.626;18.866;2022-12-20T15:37:39;32.17;;;17.58;;
58071;SDS011;60383;46.626;18.866;2022-12-20T15:40:05;33.42;;;17.60;;
58071;SDS011;60383;46.626;18.866;2022-12-20T15:42:31;30.13;;;17.10;;
58071;SDS011;60383;46.626;18.866;2022-12-20T15:44:56;34.13;;;17.02;;
58071;SDS011;60383;46.626;18.866;2022-12-20T15:47:22;31.92;;;15.98;;
58071;SDS011;60383;46.626;18.866;2022-12-20T15:49:47;30.77;;;16.25;;
58071;SDS011;60383;46.626;18.866;2022-12-20T15:52:19;33.08;;;16.52;;
58071;SDS011;60383;46.626;18.866;2022-12-20T15:54:47;33.58;;;18.15;;
58071;SDS011;60383;46.626;18.866;2022-12-20T15:57:13;34.33;;;20.00;;
58071;SDS011;60383;46.626;18.866;2022-12-20T15:59:39;33.35;;;16.63;;
58071;SDS011;60383;46.626;18.866;2022-12-20T16:02:25;31.50;;;17.25;;
58071;SDS011;60383;46.626;18.866;2022-12-20T16:04:52;31.13;;;16.55;;
58071;SDS011;60383;46.626;18.866;2022-12-20T16:07:19;29.98;;;16.42;;
58071;SDS011;60383;46.626;18.866;2022-12-20T16:09:45;33.63;;;17.48;;
58071;SDS011;60383;46.626;18.866;2022-12-20T16:12:25;31.83;;;17.25;;
58071;SDS011;60383;46.626;18.866;2022-12-20T16:14:54;33.00;;;18.58;;
58071;SDS011;60383;46.626;18.866;2022-12-20T16:17:20;31.92;;;17.77;;
58071;SDS011;60383;46.626;18.866;2022-12-20T16:19:46;30.83;;;15.68;;
58071;SDS011;60383;46.626;18.866;2022-12-20T16:22:15;33.85;;;17.70;;
58071;SDS011;60383;46.626;18.866;2022-12-20T16:24:42;31.23;;;17.15;;
58071;SDS011;60383;46.626;18.866;2022-12-20T16:27:08;29.35;;;16.38;;
58071;SDS011;60383;46.626;18.866;2022-12-20T16:29:34;32.35;;;16.80;;
58071;SDS011;60383;46.626;18.866;2022-12-20T16:31:59;35.63;;;16.90;;
58071;SDS011;60383;46.626;18.866;2022-12-20T16:34:25;33.30;;;17.17;;
58071;SDS011;60383;46.626;18.866;2022-12-20T16:36:50;30.10;;;16.60;;
58071;SDS011;60383;46.626;18.866;2022-12-20T16:39:16;32.22;;;17.85;;
58071;SDS011;60383;46.626;18.866;2022-12-20T16:41:41;34.65;;;17.70;;
58071;SDS011;60383;46.626;18.866;2022-12-20T16:44:12;32.80;;;16.35;;
58071;SDS011;60383;46.626;18.866;2022-12-20T16:46:39;37.03;;;17.60;;
58071;SDS011;60383;46.626;18.866;2022-12-20T16:49:04;35.20;;;17.10;;
58071;SDS011;60383;46.626;18.866;2022-12-20T16:51:31;30.50;;;16.05;;
58071;SDS011;60383;46.626;18.866;2022-12-20T16:54:18;30.67;;;16.98;;
58071;SDS011;60383;46.626;18.866;2022-12-20T16:56:46;32.47;;;17.40;;
58071;SDS011;60383;46.626;18.866;2022-12-20T16:59:13;32.22;;;16.98;;
58071;SDS011;60383;46.626;18.866;2022-12-20T17:01:39;35.63;;;18.00;;
58071;SDS011;60383;46.626;18.866;2022-12-20T17:04:14;33.58;;;17.55;;